createdAt,value
2019-03-13T00:01:44.985Z,1.80
2019-03-13T00:04:11.594Z,1.80
2019-03-13T00:06:38.045Z,1.60
2019-03-13T00:09:06.326Z,1.50
2019-03-13T00:11:32.679Z,1.30
2019-03-13T00:13:59.267Z,1.60
2019-03-13T00:16:25.823Z,1.70
2019-03-13T00:18:52.160Z,1.83
2019-03-13T00:21:18.654Z,1.60
2019-03-13T00:23:45.112Z,1.70
2019-03-13T00:26:11.503Z,2.10
2019-03-13T00:28:37.859Z,1.97
2019-03-13T00:31:04.327Z,1.50
2019-03-13T00:33:30.783Z,1.50
2019-03-13T00:35:57.148Z,1.70
2019-03-13T00:38:23.623Z,1.90
2019-03-13T00:40:49.989Z,1.83
2019-03-13T00:43:16.331Z,2.00
2019-03-13T00:45:42.791Z,1.67
2019-03-13T00:48:09.249Z,1.80
2019-03-13T00:50:35.608Z,1.70
2019-03-13T00:53:02.150Z,1.70
2019-03-13T00:55:28.618Z,1.70
2019-03-13T00:57:55.167Z,1.73
2019-03-13T01:00:23.765Z,1.63
2019-03-13T01:02:52.152Z,1.47
2019-03-13T01:05:23.346Z,1.30
2019-03-13T01:07:49.802Z,1.70
2019-03-13T01:10:16.163Z,1.50
2019-03-13T01:12:42.723Z,1.60
2019-03-13T01:15:09.287Z,1.70
2019-03-13T01:17:38.698Z,1.57
2019-03-13T01:20:05.024Z,1.83
2019-03-13T01:22:31.570Z,1.53
2019-03-13T01:24:58.007Z,1.43
2019-03-13T01:27:24.487Z,1.50
2019-03-13T01:29:50.940Z,1.57
2019-03-13T01:32:19.196Z,1.40
2019-03-13T01:34:47.567Z,1.50
2019-03-13T01:37:14.031Z,1.50
2019-03-13T01:39:40.391Z,1.40
2019-03-13T01:42:06.875Z,1.50
2019-03-13T01:44:33.318Z,1.40
2019-03-13T01:46:59.916Z,1.20
2019-03-13T01:49:26.363Z,1.10
2019-03-13T01:51:52.835Z,1.30
2019-03-13T01:54:19.295Z,1.17
2019-03-13T01:56:45.765Z,1.60
2019-03-13T01:59:12.114Z,1.30
2019-03-13T02:01:38.593Z,1.30
2019-03-13T02:04:05.148Z,1.30
2019-03-13T02:06:31.701Z,1.67
2019-03-13T02:08:58.202Z,1.00
2019-03-13T02:11:24.668Z,0.80
2019-03-13T02:13:51.135Z,0.57
2019-03-13T02:16:17.596Z,0.40
2019-03-13T02:18:43.974Z,0.57
2019-03-13T02:21:10.321Z,0.47
2019-03-13T02:23:36.803Z,0.33
2019-03-13T02:26:03.247Z,0.50
2019-03-13T02:28:29.631Z,0.60
2019-03-13T02:30:56.075Z,0.67
2019-03-13T02:33:22.457Z,0.67
2019-03-13T02:35:48.845Z,0.67
2019-03-13T02:38:15.411Z,0.50
2019-03-13T02:40:42.085Z,0.63
2019-03-13T02:43:08.468Z,0.50
2019-03-13T02:45:34.911Z,0.93
2019-03-13T02:48:01.400Z,0.60
2019-03-13T02:50:27.744Z,0.80
2019-03-13T02:52:54.214Z,0.70
2019-03-13T02:55:20.721Z,0.70
2019-03-13T02:57:47.178Z,0.67
2019-03-13T03:00:16.169Z,0.80
2019-03-13T03:02:44.593Z,0.73
2019-03-13T03:05:11.349Z,0.90
2019-03-13T03:07:37.704Z,0.90
2019-03-13T03:10:05.994Z,0.90
2019-03-13T03:12:32.353Z,0.90
2019-03-13T03:15:00.024Z,0.80
2019-03-13T03:17:26.519Z,0.73
2019-03-13T03:19:53.088Z,0.80
2019-03-13T03:22:19.552Z,0.80
2019-03-13T03:24:46.076Z,0.70
2019-03-13T03:27:12.480Z,0.90
2019-03-13T03:29:39.230Z,0.70
2019-03-13T03:32:05.846Z,0.60
2019-03-13T03:34:32.390Z,0.80
2019-03-13T03:36:58.938Z,1.00
2019-03-13T03:39:25.509Z,0.80
2019-03-13T03:41:51.973Z,0.80
2019-03-13T03:44:18.368Z,0.77
2019-03-13T03:46:44.717Z,0.73
2019-03-13T03:49:11.126Z,0.60
2019-03-13T03:51:37.672Z,0.60
2019-03-13T03:54:04.127Z,0.60
2019-03-13T03:56:30.507Z,0.63
2019-03-13T03:58:57.051Z,0.70
2019-03-13T04:01:23.634Z,0.70
2019-03-13T04:03:50.137Z,0.60
2019-03-13T04:06:16.644Z,0.70
2019-03-13T04:08:43.091Z,0.60
2019-03-13T04:11:09.551Z,0.50
2019-03-13T04:13:36.021Z,0.80
2019-03-13T04:16:02.569Z,0.60
2019-03-13T04:18:29.116Z,0.57
2019-03-13T04:20:55.490Z,0.70
2019-03-13T04:23:21.949Z,0.50
2019-03-13T04:25:48.519Z,0.60
2019-03-13T04:28:14.965Z,0.60
2019-03-13T04:30:41.348Z,0.70
2019-03-13T04:33:07.792Z,0.77
2019-03-13T04:35:34.334Z,0.73
2019-03-13T04:38:00.811Z,1.00
2019-03-13T04:40:27.187Z,0.70
2019-03-13T04:42:53.757Z,0.80
2019-03-13T04:45:20.269Z,0.90
2019-03-13T04:47:46.912Z,1.20
2019-03-13T04:50:13.985Z,0.80
2019-03-13T04:52:40.348Z,1.10
2019-03-13T04:55:07.995Z,0.87
2019-03-13T04:57:34.471Z,1.00
2019-03-13T05:00:01.231Z,1.20
2019-03-13T05:02:27.695Z,0.73
2019-03-13T05:04:54.097Z,1.07
2019-03-13T05:07:20.470Z,1.20
2019-03-13T05:09:46.823Z,1.17
2019-03-13T05:12:13.306Z,1.43
2019-03-13T05:14:39.858Z,1.30
2019-03-13T05:17:06.437Z,1.17
2019-03-13T05:19:32.795Z,1.20
2019-03-13T05:21:59.164Z,1.47
2019-03-13T05:24:25.623Z,1.10
2019-03-13T05:26:52.092Z,1.40
2019-03-13T05:29:18.552Z,1.30
2019-03-13T05:31:45.299Z,1.50
2019-03-13T05:34:11.754Z,1.57
2019-03-13T05:36:38.137Z,1.63
2019-03-13T05:39:05.207Z,1.27
2019-03-13T05:41:31.666Z,1.53
2019-03-13T05:43:59.812Z,1.20
2019-03-13T05:46:26.261Z,1.43
2019-03-13T05:48:52.627Z,1.70
2019-03-13T05:51:18.991Z,2.20
2019-03-13T05:53:45.363Z,1.80
2019-03-13T05:56:11.813Z,1.47
2019-03-13T05:58:38.171Z,1.57
2019-03-13T06:01:04.735Z,1.70
2019-03-13T06:03:31.131Z,1.70
2019-03-13T06:05:57.678Z,1.60
2019-03-13T06:08:24.047Z,1.30
2019-03-13T06:10:50.434Z,1.40
2019-03-13T06:13:17.010Z,1.57
2019-03-13T06:15:43.681Z,1.30
2019-03-13T06:18:10.295Z,1.60
2019-03-13T06:20:36.801Z,1.50
2019-03-13T06:23:06.100Z,1.30
2019-03-13T06:25:32.473Z,1.40
2019-03-13T06:27:58.896Z,1.77
2019-03-13T06:30:25.460Z,1.37
2019-03-13T06:32:51.801Z,1.40
2019-03-13T06:35:18.267Z,1.30
2019-03-13T06:37:44.719Z,1.23
2019-03-13T06:40:11.995Z,1.20
2019-03-13T06:42:38.435Z,1.33
2019-03-13T06:45:06.711Z,1.40
2019-03-13T06:47:33.059Z,1.53
2019-03-13T06:49:59.438Z,1.50
2019-03-13T06:52:25.995Z,1.33
2019-03-13T06:54:52.372Z,1.40
2019-03-13T06:57:18.814Z,1.50
2019-03-13T06:59:47.116Z,1.80
2019-03-13T07:02:15.491Z,1.40
2019-03-13T07:04:43.917Z,1.40
2019-03-13T07:07:15.147Z,1.50
2019-03-13T07:09:43.454Z,1.70
2019-03-13T07:12:11.874Z,1.70
2019-03-13T07:14:40.145Z,1.50
2019-03-13T07:17:08.403Z,1.67
2019-03-13T07:19:36.710Z,1.90
2019-03-13T07:22:05.075Z,2.70
2019-03-13T07:24:33.470Z,1.90
2019-03-13T07:27:01.758Z,1.93
2019-03-13T07:29:30.109Z,1.50
2019-03-13T07:31:58.411Z,1.50
2019-03-13T07:34:26.667Z,1.23
2019-03-13T07:36:55.055Z,1.63
2019-03-13T07:39:22.421Z,1.00
2019-03-13T07:41:50.705Z,1.07
2019-03-13T07:44:18.975Z,1.60
2019-03-13T07:46:47.355Z,0.87
2019-03-13T07:49:15.603Z,1.23
2019-03-13T07:51:43.899Z,1.40
2019-03-13T07:54:12.269Z,1.30
2019-03-13T07:56:40.568Z,1.20
2019-03-13T07:59:08.816Z,1.37
2019-03-13T08:01:37.102Z,1.57
2019-03-13T08:04:05.888Z,1.07
2019-03-13T08:06:34.411Z,1.70
2019-03-13T08:09:05.563Z,0.90
2019-03-13T08:11:31.922Z,1.53
2019-03-13T08:14:00.287Z,0.80
2019-03-13T08:16:28.544Z,0.70
2019-03-13T08:18:56.839Z,0.80
2019-03-13T08:21:24.343Z,0.90
2019-03-13T08:23:52.651Z,1.00
2019-03-13T08:26:20.899Z,1.07
2019-03-13T08:28:49.155Z,0.90
2019-03-13T08:31:17.548Z,0.70
2019-03-13T08:33:46.993Z,0.80
2019-03-13T08:36:17.207Z,0.90
2019-03-13T08:38:45.551Z,1.70
2019-03-13T08:41:13.839Z,0.70
2019-03-13T08:43:42.109Z,0.50
2019-03-13T08:46:10.395Z,1.10
2019-03-13T08:48:38.763Z,1.07
2019-03-13T08:51:07.162Z,0.93
2019-03-13T08:53:38.319Z,0.60
2019-03-13T08:56:06.719Z,0.60
2019-03-13T08:58:35.067Z,1.00
2019-03-13T09:01:03.363Z,1.00
2019-03-13T09:03:31.619Z,0.83
2019-03-13T09:05:59.991Z,0.40
2019-03-13T09:08:28.353Z,0.90
2019-03-13T09:10:56.712Z,0.70
2019-03-13T09:13:25.059Z,1.23
2019-03-13T09:15:53.457Z,0.90
2019-03-13T09:18:21.702Z,1.10
2019-03-13T09:20:50.153Z,0.97
2019-03-13T09:23:17.666Z,0.60
2019-03-13T09:25:46.019Z,1.00
2019-03-13T09:28:14.310Z,0.87
2019-03-13T09:30:42.672Z,0.80
2019-03-13T09:33:10.951Z,0.90
2019-03-13T09:35:39.362Z,0.93
2019-03-13T09:38:07.711Z,0.63
2019-03-13T09:40:36.054Z,0.90
2019-03-13T09:43:04.307Z,0.87
2019-03-13T09:45:32.687Z,1.33
2019-03-13T09:47:59.143Z,0.93
2019-03-13T09:50:27.437Z,1.00
2019-03-13T09:52:55.703Z,0.70
2019-03-13T09:55:26.148Z,0.60
2019-03-13T09:57:54.387Z,0.90
2019-03-13T10:00:22.675Z,0.90
2019-03-13T10:02:50.936Z,0.97
2019-03-13T10:05:19.237Z,0.87
2019-03-13T10:07:50.454Z,0.90
2019-03-13T10:10:18.823Z,1.13
2019-03-13T10:12:47.171Z,0.80
2019-03-13T10:15:15.531Z,0.87
2019-03-13T10:17:43.802Z,0.90
2019-03-13T10:20:22.338Z,0.93
2019-03-13T10:22:50.687Z,0.90
2019-03-13T10:25:19.090Z,0.73
2019-03-13T10:27:47.445Z,0.90
2019-03-13T10:30:15.720Z,0.80
2019-03-13T10:32:44.061Z,1.00
2019-03-13T10:35:12.463Z,0.80
2019-03-13T10:37:40.707Z,0.80
2019-03-13T10:40:09.572Z,0.70
2019-03-13T10:42:37.827Z,0.83
2019-03-13T10:45:07.375Z,0.70
2019-03-13T10:47:35.686Z,1.47
2019-03-13T10:50:05.532Z,0.80
2019-03-13T10:52:33.959Z,0.70
2019-03-13T10:55:05.139Z,0.80
2019-03-13T10:57:33.431Z,0.80
2019-03-13T11:00:01.681Z,0.87
2019-03-13T11:02:29.955Z,1.17
2019-03-13T11:04:58.212Z,0.90
2019-03-13T11:07:28.694Z,0.70
2019-03-13T11:09:56.655Z,0.72
2019-03-13T11:12:24.946Z,0.80
2019-03-13T11:14:53.200Z,1.00
2019-03-13T11:17:21.499Z,0.87
2019-03-13T11:19:48.852Z,0.90
2019-03-13T11:22:17.135Z,1.00
2019-03-13T11:24:45.388Z,0.63
2019-03-13T11:27:16.532Z,0.80
2019-03-13T11:29:44.855Z,0.90
2019-03-13T11:32:13.142Z,0.90
2019-03-13T11:34:41.414Z,0.83
2019-03-13T11:37:09.784Z,1.10
2019-03-13T11:39:38.032Z,0.90
2019-03-13T11:42:09.309Z,1.10
2019-03-13T11:44:37.662Z,0.90
2019-03-13T11:47:06.051Z,0.83
2019-03-13T11:49:34.404Z,0.90
2019-03-13T11:52:02.832Z,0.73
2019-03-13T11:54:31.176Z,0.80
2019-03-13T11:56:59.464Z,0.70
2019-03-13T11:59:27.735Z,0.80
2019-03-13T12:01:56.140Z,0.57
2019-03-13T12:04:24.381Z,0.90
2019-03-13T12:06:52.710Z,0.70
2019-03-13T12:09:20.972Z,1.07
2019-03-13T12:11:55.412Z,0.70
2019-03-13T12:14:23.771Z,0.83
2019-03-13T12:16:52.015Z,1.43
2019-03-13T12:19:20.320Z,0.73
2019-03-13T12:21:48.681Z,1.10
2019-03-13T12:24:15.119Z,0.90
2019-03-13T12:26:43.379Z,1.10
2019-03-13T12:29:11.675Z,0.90
2019-03-13T12:31:40.015Z,1.07
2019-03-13T12:34:08.322Z,1.10
2019-03-13T12:36:36.564Z,1.03
2019-03-13T12:39:06.795Z,1.03
2019-03-13T12:41:35.129Z,0.80
2019-03-13T12:44:03.419Z,1.03
2019-03-13T12:46:40.635Z,1.00
2019-03-13T12:49:07.025Z,0.87
2019-03-13T12:51:35.279Z,1.10
2019-03-13T12:54:03.578Z,0.90
2019-03-13T12:56:31.829Z,0.80
2019-03-13T12:59:00.095Z,1.00
2019-03-13T13:01:28.441Z,1.33
2019-03-13T13:03:56.839Z,0.72
2019-03-13T13:06:25.087Z,0.80
2019-03-13T13:08:53.384Z,1.07
2019-03-13T13:11:21.732Z,0.90
2019-03-13T13:13:50.123Z,0.98
2019-03-13T13:16:18.431Z,1.00
2019-03-13T13:18:45.787Z,1.00
2019-03-13T13:21:12.159Z,1.10
2019-03-13T13:23:38.706Z,0.90
2019-03-13T13:26:05.275Z,1.00
2019-03-13T13:28:31.654Z,0.70
2019-03-13T13:30:58.142Z,0.70
2019-03-13T13:33:24.495Z,1.20
2019-03-13T13:35:51.054Z,1.30
2019-03-13T13:38:17.507Z,2.07
2019-03-13T13:40:43.871Z,0.93
2019-03-13T13:43:10.331Z,0.70
2019-03-13T13:45:38.124Z,0.70
2019-03-13T13:48:04.597Z,1.00
2019-03-13T13:50:31.066Z,1.30
2019-03-13T13:52:57.540Z,1.40
2019-03-13T13:55:26.506Z,0.80
2019-03-13T13:57:52.895Z,1.43
2019-03-13T14:00:19.321Z,1.13
2019-03-13T14:02:45.952Z,1.00
2019-03-13T14:05:12.421Z,1.37
2019-03-13T14:07:38.767Z,1.10
2019-03-13T14:10:07.134Z,0.90
2019-03-13T14:12:33.479Z,1.10
2019-03-13T14:14:59.905Z,0.88
2019-03-13T14:17:26.331Z,1.00
2019-03-13T14:19:52.712Z,0.70
2019-03-13T14:22:19.065Z,1.17
2019-03-13T14:24:45.523Z,0.93
2019-03-13T14:27:14.861Z,0.65
2019-03-13T14:29:40.228Z,1.20
2019-03-13T14:32:06.593Z,1.00
2019-03-13T14:34:32.964Z,1.30
2019-03-13T14:36:59.554Z,1.87
2019-03-13T14:39:25.895Z,1.17
2019-03-13T14:41:52.365Z,1.20
2019-03-13T14:44:18.823Z,1.20
2019-03-13T14:46:45.181Z,1.57
2019-03-13T14:49:11.615Z,0.63
2019-03-13T14:51:38.208Z,0.73
2019-03-13T14:54:04.853Z,0.83
2019-03-13T14:56:31.363Z,1.23
2019-03-13T14:58:57.813Z,1.00
2019-03-13T15:01:24.315Z,0.90
2019-03-13T15:03:50.660Z,0.83
2019-03-13T15:06:17.027Z,1.87
2019-03-13T15:08:43.385Z,0.93
2019-03-13T15:11:09.776Z,1.10
2019-03-13T15:13:36.142Z,1.33
2019-03-13T15:16:02.709Z,0.90
2019-03-13T15:18:48.971Z,1.03
2019-03-13T15:21:15.319Z,0.90
2019-03-13T15:23:41.784Z,0.90
2019-03-13T15:26:08.281Z,1.10
2019-03-13T15:28:34.767Z,1.03
2019-03-13T15:31:01.251Z,1.23
2019-03-13T15:33:27.611Z,1.00
2019-03-13T15:35:53.963Z,1.20
2019-03-13T15:38:20.331Z,1.13
2019-03-13T15:40:46.887Z,1.30
2019-03-13T15:43:13.251Z,1.20
2019-03-13T15:45:39.716Z,1.20
2019-03-13T15:48:06.183Z,1.10
2019-03-13T15:50:32.735Z,1.20
2019-03-13T15:52:59.231Z,1.80
2019-03-13T15:55:25.604Z,1.10
2019-03-13T15:57:52.116Z,4.40
2019-03-13T16:00:19.600Z,1.80
2019-03-13T16:02:46.049Z,1.97
2019-03-13T16:05:12.608Z,1.80
2019-03-13T16:07:38.955Z,2.00
2019-03-13T16:10:07.227Z,5.83
2019-03-13T16:12:33.576Z,2.10
2019-03-13T16:15:00.067Z,1.30
2019-03-13T16:17:26.713Z,2.67
2019-03-13T16:19:53.102Z,1.57
2019-03-13T16:22:21.343Z,1.87
2019-03-13T16:24:47.840Z,1.33
2019-03-13T16:27:14.297Z,1.30
2019-03-13T16:29:40.791Z,1.10
2019-03-13T16:32:07.246Z,1.00
2019-03-13T16:34:33.751Z,1.27
2019-03-13T16:37:00.701Z,1.33
2019-03-13T16:39:27.095Z,1.33
2019-03-13T16:41:53.447Z,2.30
2019-03-13T16:44:19.815Z,1.40
2019-03-13T16:46:46.173Z,1.80
2019-03-13T16:49:12.544Z,1.97
2019-03-13T16:51:38.917Z,1.40
2019-03-13T16:54:05.264Z,1.97
2019-03-13T16:59:11.490Z,1.17
2019-03-13T17:01:37.877Z,0.90
2019-03-13T17:04:04.327Z,1.37
2019-03-13T17:06:30.687Z,2.60
2019-03-13T17:08:57.033Z,1.77
2019-03-13T17:11:23.528Z,1.70
2019-03-13T17:13:50.043Z,1.20
2019-03-13T17:16:16.507Z,1.30
2019-03-13T17:18:42.872Z,1.37
2019-03-13T17:21:09.240Z,1.07
2019-03-13T17:23:35.683Z,1.20
2019-03-13T17:26:02.067Z,1.03
2019-03-13T17:28:28.420Z,2.13
2019-03-13T17:30:54.793Z,1.30
2019-03-13T17:33:21.143Z,5.50
2019-03-13T17:35:47.622Z,3.03
2019-03-13T17:38:14.003Z,3.13
2019-03-13T17:40:40.443Z,3.53
2019-03-13T17:43:06.816Z,3.60
2019-03-13T17:45:33.271Z,5.43
2019-03-13T17:47:59.639Z,2.43
2019-03-13T17:50:26.265Z,1.83
2019-03-13T17:52:52.923Z,2.20
2019-03-13T17:55:21.770Z,1.80
2019-03-13T17:57:48.207Z,1.80
2019-03-13T18:00:14.854Z,1.50
2019-03-13T18:02:41.332Z,1.80
2019-03-13T18:05:08.891Z,3.00
2019-03-13T18:07:35.359Z,1.27
2019-03-13T18:10:01.926Z,1.63
2019-03-13T18:12:28.301Z,1.77
2019-03-13T18:14:54.664Z,2.13
2019-03-13T18:17:21.131Z,1.30
2019-03-13T18:19:49.995Z,1.93
2019-03-13T18:22:16.071Z,1.57
2019-03-13T18:24:42.423Z,1.93
2019-03-13T18:27:08.767Z,1.40
2019-03-13T18:29:35.259Z,2.13
2019-03-13T18:32:01.608Z,2.00
2019-03-13T18:34:28.088Z,1.53
2019-03-13T18:36:54.636Z,4.00
2019-03-13T18:39:21.033Z,8.30
2019-03-13T18:41:47.484Z,1.93
2019-03-13T18:44:13.951Z,1.40
2019-03-13T18:46:40.299Z,1.80
2019-03-13T18:49:06.783Z,1.80
2019-03-13T18:51:33.215Z,3.63
2019-03-13T18:53:59.587Z,2.30
2019-03-13T18:56:25.962Z,3.80
2019-03-13T18:58:52.351Z,2.17
2019-03-13T19:01:18.804Z,2.30
2019-03-13T19:03:45.270Z,2.03
2019-03-13T19:06:11.634Z,1.97
2019-03-13T19:08:37.995Z,1.93
2019-03-13T19:11:04.446Z,1.97
2019-03-13T19:13:30.807Z,1.77
2019-03-13T19:15:57.362Z,1.87
2019-03-13T19:18:23.778Z,1.33
2019-03-13T19:20:50.194Z,1.97
2019-03-13T19:23:16.570Z,1.90
2019-03-13T19:25:43.043Z,1.50
2019-03-13T19:28:09.441Z,1.90
2019-03-13T19:30:37.890Z,1.63
2019-03-13T19:33:04.182Z,1.70
2019-03-13T19:35:30.775Z,1.63
2019-03-13T19:37:59.064Z,1.80
2019-03-13T19:40:25.659Z,1.97
2019-03-13T19:42:52.232Z,1.70
2019-03-13T19:45:20.519Z,2.40
2019-03-13T19:47:46.864Z,1.80
2019-03-13T19:50:13.336Z,1.70
2019-03-13T19:52:39.825Z,3.30
2019-03-13T19:55:07.792Z,3.43
2019-03-13T19:57:34.153Z,1.60
2019-03-13T20:00:00.638Z,2.33
2019-03-13T20:02:27.002Z,2.17
2019-03-13T20:04:53.367Z,1.80
2019-03-13T20:07:19.931Z,2.30
2019-03-13T20:09:46.327Z,1.80
2019-03-13T20:12:14.126Z,2.00
2019-03-13T20:14:40.754Z,1.97
2019-03-13T20:17:07.241Z,1.90
2019-03-13T20:19:33.596Z,1.93
2019-03-13T20:22:00.073Z,1.27
2019-03-13T20:24:26.418Z,1.70
2019-03-13T20:26:52.894Z,1.50
2019-03-13T20:29:19.350Z,1.50
2019-03-13T20:31:45.914Z,1.50
2019-03-13T20:34:12.266Z,1.83
2019-03-13T20:36:38.759Z,1.93
2019-03-13T20:39:05.430Z,1.50
2019-03-13T20:41:32.003Z,2.00
2019-03-13T20:43:58.472Z,1.57
2019-03-13T20:46:24.927Z,2.00
2019-03-13T20:48:51.376Z,1.80
2019-03-13T20:51:17.756Z,1.20
2019-03-13T20:53:44.135Z,1.43
2019-03-13T20:56:10.643Z,1.63
2019-03-13T20:58:37.195Z,1.50
2019-03-13T21:01:03.614Z,1.20
2019-03-13T21:03:30.043Z,1.80
2019-03-13T21:05:56.559Z,1.47
2019-03-13T21:08:22.934Z,1.50
2019-03-13T21:10:49.412Z,1.70
2019-03-13T21:13:15.895Z,1.63
2019-03-13T21:15:43.750Z,1.47
2019-03-13T21:18:11.059Z,1.60
2019-03-13T21:20:37.511Z,1.57
2019-03-13T21:23:03.888Z,1.50
2019-03-13T21:25:30.235Z,1.63
2019-03-13T21:27:56.740Z,1.70
2019-03-13T21:30:24.710Z,2.20
2019-03-13T21:32:51.255Z,1.50
2019-03-13T21:35:17.606Z,2.00
2019-03-13T21:37:43.995Z,1.80
2019-03-13T21:40:11.794Z,1.40
2019-03-13T21:42:38.417Z,1.70
2019-03-13T21:45:05.573Z,1.67
2019-03-13T21:47:31.933Z,1.20
2019-03-13T21:49:58.599Z,2.00
2019-03-13T21:52:25.227Z,1.87
2019-03-13T21:54:52.203Z,1.93
2019-03-13T21:57:18.833Z,2.20
2019-03-13T21:59:45.263Z,1.90
2019-03-13T22:02:11.780Z,1.73
2019-03-13T22:04:38.186Z,1.80
2019-03-13T22:07:04.643Z,2.30
2019-03-13T22:09:34.133Z,1.87
2019-03-13T22:12:00.666Z,2.27
2019-03-13T22:14:27.131Z,1.97
2019-03-13T22:16:53.589Z,2.00
2019-03-13T22:19:19.967Z,1.87
2019-03-13T22:21:46.439Z,2.00
2019-03-13T22:24:12.811Z,2.10
2019-03-13T22:26:39.259Z,2.53
2019-03-13T22:29:05.724Z,2.10
2019-03-13T22:31:32.111Z,1.83
2019-03-13T22:33:58.679Z,2.57
2019-03-13T22:36:25.039Z,2.40
2019-03-13T22:38:53.039Z,2.10
2019-03-13T22:41:19.594Z,2.17
2019-03-13T22:43:45.939Z,1.90
2019-03-13T22:46:12.304Z,2.30
2019-03-13T22:48:38.688Z,2.00
2019-03-13T22:51:05.159Z,2.20
2019-03-13T22:53:31.651Z,2.20
2019-03-13T22:55:58.044Z,2.13
2019-03-13T22:58:24.946Z,1.80
2019-03-13T23:00:55.435Z,1.90
2019-03-13T23:03:22.788Z,1.60
2019-03-13T23:05:49.273Z,1.60
2019-03-13T23:08:15.726Z,1.50
2019-03-13T23:10:42.187Z,1.53
2019-03-13T23:13:08.636Z,1.83
2019-03-13T23:15:35.140Z,1.50
2019-03-13T23:18:01.506Z,1.77
2019-03-13T23:20:28.111Z,1.40
2019-03-13T23:22:54.468Z,1.70
2019-03-13T23:25:21.035Z,1.20
2019-03-13T23:27:47.583Z,1.10
2019-03-13T23:30:14.102Z,0.97
2019-03-13T23:32:40.515Z,1.17
2019-03-13T23:35:07.060Z,1.00
2019-03-13T23:37:33.606Z,0.97
2019-03-13T23:39:59.959Z,1.00
2019-03-13T23:42:26.531Z,0.70
2019-03-13T23:44:54.809Z,0.80
2019-03-13T23:47:21.284Z,1.03
2019-03-13T23:49:47.737Z,0.90
2019-03-13T23:52:14.096Z,1.30
2019-03-13T23:54:40.483Z,0.87
2019-03-13T23:57:06.864Z,0.90
2019-03-13T23:59:33.426Z,0.90
